• Join FlightAware (Why Join?)
  • Login
  • US Flag 
05:41AM EDT


 

Airport Tracker/Info


-or-


 

Live Flight TrackerFlight Track Log ✈ BJS440 ✈ 02-Aug-2014 ✈ KJYO - KBXM

Flight Track Log - Related Links

Times and Time Zones

All times are in EDT time to prevent confusion due to time zone crossing. See the BJS440 flight status page for this flight to view local times or setup timezone preferences in your user account.

Time Position Orientation Groundspeed Altitude Reporting Facility
EDT Latitude Longitude Course Direction KTS MPH feet Rate Location/Type
08:37AM 39.0500 -77.6000 100° East 200 230 3,200  Level Potomac TRACON
08:38AM 39.0667 -77.6667 288° West 203 234 5,500 2,160 Climbing Potomac TRACON
08:39AM 39.1167 -77.6500 14° North 245 282 7,600 1,620 Climbing Potomac TRACON
08:40AM 39.1500 -77.5500 67° East 280 322 8,800 660 Climbing Potomac TRACON
08:41AM 39.1833 -77.4667 63° Northeast 294 338 9,000 60 Climbing Potomac TRACON
08:42AM 39.3266 -76.9692 100° East  Level FlightAware Approximate
08:42AM 39.2167 -77.3667 67° East 302 348 9,000  Level Potomac TRACON
08:43AM 39.2500 -77.2667 67° East 307 353 10,300 1,980 Climbing Potomac TRACON
08:44AM 39.3000 -77.1500 61° Northeast 365 420 13,000 2,160 Climbing Potomac TRACON
08:45AM 39.3275 -77.0644 67° East 388 447 14,400 1,380 Climbing Washington Center
08:46AM 39.3250 -76.9222 91° East 393 452 15,700 2,100 Climbing Washington Center
08:46AM 39.3036 -76.7744 101° East 393 452 18,600 3,180 Climbing Washington Center
08:48AM 39.2842 -76.6078 99° East 408 470 22,100 2,160 Climbing Washington Center
08:49AM 39.2667 -76.4467 98° East 432 497 23,000 420 Climbing Washington Center
08:49AM 39.3178 -76.2864 68° East 455 524 23,000 300 Level Washington Center
08:51AM 39.3686 -76.1447 65° Northeast 460 529 23,700 1,740 Climbing Washington Center
08:52AM 39.4192 -75.9892 67° East 465 535 26,600 2,820 Climbing Washington Center
08:52AM 39.4675 -75.8333 68° East 471 542 29,400 2,400 Climbing Washington Center
08:53AM 39.5197 -75.6775 66° East 471 542 31,400 1,740 Climbing Washington Center
08:55AM 39.5697 -75.5161 68° East 471 542 33,000 1,740 Climbing Washington Center
08:56AM 39.6217 -75.3544 67° East 476 548 35,000 1,920 Climbing Washington Center
08:57AM 39.7006 -75.2139 54° Northeast 470 541 36,900 1,920 Climbing Washington Center
08:57AM 39.7625 -75.1161 50° Northeast 467 537 38,000 1,800 Climbing New York Center
08:58AM 39.8458 -75.0022 46° Northeast 510 587 39,800 1,380 Climbing New York Center
08:59AM 39.9381 -74.8725 47° Northeast 487 560 40,800 600 Climbing New York Center
09:00AM 40.0408 -74.7294 47° Northeast 481 554 41,000 60 Climbing New York Center
09:02AM 40.2392 -74.4425 48° Northeast 521 600 41,000  Level Boston Center
09:03AM 40.3392 -74.2986 48° Northeast 531 611 41,000  Level Boston Center
09:04AM 40.4375 -74.1547 48° Northeast 531 611 41,000  Level Boston Center
09:05AM 40.5350 -74.0142 48° Northeast 530 610 41,000  Level Boston Center
09:06AM 40.6314 -73.8692 49° Northeast 528 608 41,000  Level Boston Center
09:07AM 40.7300 -73.7253 48° Northeast 527 606 41,000  Level Boston Center
09:08AM 40.8267 -73.5808 48° Northeast 527 606 41,000  Level Boston Center
09:09AM 40.9244 -73.4344 48° Northeast 527 606 41,000  Level Boston Center
09:10AM 41.0231 -73.2858 49° Northeast 530 610 41,000  Level Boston Center
09:11AM 41.1244 -73.1328 49° Northeast 530 610 41,000  Level Boston Center
09:12AM 41.2222 -72.9842 49° Northeast 533 613 41,000  Level Boston Center
09:13AM 41.3381 -72.8056 49° Northeast 533 613 41,000  Level Boston Center
09:14AM 41.4331 -72.6514 51° Northeast 534 615 41,000  Level Boston Center
09:15AM 41.5219 -72.4917 53° Northeast 534 615 41,000  Level Boston Center
09:16AM 41.6108 -72.3361 53° Northeast 535 616 41,000  Level Boston Center
09:17AM 41.7011 -72.1783 53° Northeast 536 617 41,000  Level Boston Center
09:18AM 41.7892 -72.0189 53° Northeast 536 617 41,000 -60 Level Boston Center
09:19AM 41.8789 -71.8583 53° Northeast 542 624 40,900 -780 Descending Boston Center
09:20AM 41.9700 -71.6947 53° Northeast 549 632 39,400 -1,500 Descending Boston Center
09:21AM 42.0628 -71.5303 53° Northeast 551 634 37,900 -1,620 Descending Boston Center
09:23AM 42.1689 -71.3364 54° Northeast 546 628 36,200 -1,560 Descending Boston Center
09:24AM 42.2531 -71.1836 53° Northeast 532 612 34,700 -1,500 Descending Boston Center
09:25AM 42.3403 -71.0281 53° Northeast 524 603 33,200 -1,500 Descending Boston Center
09:26AM 42.4553 -70.9233 34° Northeast 502 578 31,700 -1,500 Descending Boston Center
09:27AM 42.5819 -70.8406 26° Northeast 502 578 30,200 -1,440 Descending Boston Center
09:28AM 42.7075 -70.7567 26° Northeast 502 578 28,700 -1,500 Descending Boston Center
09:29AM 42.8311 -70.6714 27° Northeast 502 578 27,200 -1,500 Descending Boston Center
09:30AM 42.9572 -70.5861 26° Northeast 503 579 25,700 -2,580 Descending Boston Center
09:31AM 43.0814 -70.5025 26° Northeast 501 577 22,000 -4,020 Descending Boston Center
09:32AM 43.2128 -70.4117 27° Northeast 456 525 17,700 -3,780 Descending Boston Center
09:33AM 43.3236 -70.3358 26° Northeast 416 479 14,300 -3,240 Descending Boston Center
09:34AM 43.4208 -70.2681 27° Northeast 392 451 11,100 -2,340 Descending Boston Center
09:35AM 43.5014 -70.2203 23° Northeast 319 367 9,600 -1,800 Descending Boston Center
09:36AM 43.5847 -70.2531 344° North 286 329 7,500 -1,980 Descending Boston Center
09:37AM 43.6594 -70.2592 357° North 278 320 5,600 -1,680 Descending Boston Center
09:38AM 43.7233 -70.2131 28° Northeast 274 315 4,100 -1,080 Descending Boston Center
09:39AM 43.7728 -70.1306 50° Northeast 278 320 3,500 -660 Descending Boston Center
09:40AM 43.8214 -70.0514 50° Northeast 278 320 2,800 -720 Descending Boston Center
09:42AM 43.8833 -69.9333 28° Northeast  Level FlightAware Approximate
09:49AM 43.8924 -69.9388 28° Northeast  Level Estimated
09:50AM 43.8924 -69.9388 28° Northeast  Level Estimated
09:51AM 43.8924 -69.9388 28° Northeast  Level Estimated
09:52AM 43.8924 -69.9388 28° Northeast  Level Estimated
09:53AM 43.8924 -69.9388 28° Northeast  Level Estimated
09:54AM 43.8924 -69.9388 28° Northeast  Level Estimated
09:55AM 43.8924 -69.9388 28° Northeast  Level Estimated
09:56AM 43.8924 -69.9388 28° Northeast  Level Estimated
09:57AM 43.8924 -69.9388 28° Northeast  Level Estimated